createdAt,value
2019-03-04T00:01:13.402Z,32.37
2019-03-04T00:03:43.746Z,33.17
2019-03-04T00:06:14.060Z,32.17
2019-03-04T00:08:45.627Z,30.23
2019-03-04T00:11:15.896Z,33.50
2019-03-04T00:13:46.416Z,30.47
2019-03-04T00:16:17.166Z,28.57
2019-03-04T00:18:47.520Z,32.00
2019-03-04T00:21:17.793Z,30.33
2019-03-04T00:23:48.115Z,29.33
2019-03-04T00:26:18.436Z,32.40
2019-03-04T00:28:48.695Z,32.73
2019-03-04T00:31:19.547Z,27.97
2019-03-04T00:33:50.045Z,34.57
2019-03-04T00:36:20.381Z,35.47
2019-03-04T00:38:50.641Z,27.23
2019-03-04T00:41:20.929Z,28.47
2019-03-04T00:43:51.550Z,32.00
2019-03-04T00:46:21.797Z,33.47
2019-03-04T00:48:52.103Z,32.03
2019-03-04T00:51:22.361Z,32.50
2019-03-04T00:53:53.061Z,33.73
2019-03-04T00:56:23.306Z,33.47
2019-03-04T00:58:54.091Z,27.53
2019-03-04T01:01:24.345Z,33.67
2019-03-04T01:03:55.210Z,29.57
2019-03-04T01:06:25.464Z,31.17
2019-03-04T01:08:56.209Z,31.67
2019-03-04T01:11:26.453Z,26.43
2019-03-04T01:13:56.723Z,31.07
2019-03-04T01:16:27.654Z,30.10
2019-03-04T01:18:57.955Z,30.87
2019-03-04T01:21:28.291Z,26.97
2019-03-04T01:23:58.549Z,27.87
2019-03-04T01:26:29.271Z,33.03
2019-03-04T01:28:59.530Z,26.87
2019-03-04T01:31:30.218Z,24.83
2019-03-04T01:34:00.554Z,35.20
2019-03-04T01:36:33.682Z,28.43
2019-03-04T01:39:05.421Z,29.07
2019-03-04T01:41:36.064Z,22.00
2019-03-04T01:44:06.310Z,29.83
2019-03-04T01:46:36.651Z,31.57
2019-03-04T01:49:06.912Z,32.47
2019-03-04T01:51:37.171Z,24.93
2019-03-04T01:54:07.449Z,28.47
2019-03-04T01:56:37.712Z,31.07
2019-03-04T01:59:08.006Z,32.90
2019-03-04T02:01:38.195Z,28.87
2019-03-04T02:04:08.728Z,31.40
2019-03-04T02:06:39.823Z,28.77
2019-03-04T02:09:11.376Z,27.17
2019-03-04T02:11:42.207Z,29.73
2019-03-04T02:14:12.638Z,34.90
2019-03-04T02:16:42.916Z,31.50
2019-03-04T02:19:13.213Z,26.17
2019-03-04T02:21:43.515Z,24.10
2019-03-04T02:24:24.715Z,34.37
2019-03-04T02:26:57.017Z,25.93
2019-03-04T02:29:27.521Z,23.87
2019-03-04T02:31:57.815Z,27.40
2019-03-04T02:34:28.239Z,25.13
2019-03-04T02:36:59.790Z,25.03
2019-03-04T02:39:31.248Z,28.63
2019-03-04T02:42:01.470Z,24.13
2019-03-04T02:44:33.050Z,23.57
2019-03-04T02:47:03.262Z,24.00
2019-03-04T02:49:33.603Z,20.30
2019-03-04T02:52:04.207Z,20.20
2019-03-04T02:54:34.462Z,25.10
2019-03-04T02:57:05.115Z,23.03
2019-03-04T02:59:35.622Z,23.93
2019-03-04T03:02:07.891Z,22.27
2019-03-04T03:04:38.128Z,23.03
2019-03-04T03:07:09.127Z,19.33
2019-03-04T03:09:39.890Z,24.53
2019-03-04T03:12:10.300Z,19.33
2019-03-04T03:14:40.592Z,25.00
2019-03-04T03:17:10.880Z,23.63
2019-03-04T03:19:41.124Z,21.13
2019-03-04T03:22:11.774Z,18.00
2019-03-04T03:24:41.959Z,22.10
2019-03-04T03:27:12.535Z,19.67
2019-03-04T03:29:42.797Z,22.37
2019-03-04T03:32:13.106Z,21.87
2019-03-04T03:34:43.245Z,17.43
2019-03-04T03:37:13.478Z,17.70
2019-03-04T03:39:43.797Z,17.67
2019-03-04T03:42:14.098Z,21.07
2019-03-04T03:44:44.387Z,21.97
2019-03-04T03:47:14.727Z,18.50
2019-03-04T03:49:44.965Z,17.23
2019-03-04T03:52:15.394Z,17.00
2019-03-04T03:54:45.728Z,21.07
2019-03-04T03:57:16.101Z,20.53
2019-03-04T03:59:46.332Z,15.97
2019-03-04T04:02:16.640Z,19.13
2019-03-04T04:04:47.101Z,15.60
2019-03-04T04:07:18.140Z,13.63
2019-03-04T04:09:48.413Z,16.47
2019-03-04T04:12:18.754Z,15.93
2019-03-04T04:14:49.020Z,17.87
2019-03-04T04:17:19.397Z,20.30
2019-03-04T04:19:49.752Z,15.17
2019-03-04T04:22:20.057Z,15.27
2019-03-04T04:24:50.758Z,17.33
2019-03-04T04:27:21.060Z,14.97
2019-03-04T04:29:51.345Z,12.97
2019-03-04T04:32:21.690Z,18.97
2019-03-04T04:34:51.966Z,15.23
2019-03-04T04:37:22.273Z,21.63
2019-03-04T04:39:52.488Z,15.87
2019-03-04T04:42:22.794Z,16.57
2019-03-04T04:44:53.105Z,14.83
2019-03-04T04:47:23.401Z,16.10
2019-03-04T04:49:53.641Z,15.40
2019-03-04T04:52:23.845Z,17.30
2019-03-04T04:54:54.112Z,16.23
2019-03-04T04:57:24.354Z,16.33
2019-03-04T04:59:54.670Z,16.33
2019-03-04T05:02:24.919Z,17.53
2019-03-04T05:04:55.497Z,15.23
2019-03-04T05:07:25.987Z,13.37
2019-03-04T05:09:56.243Z,15.87
2019-03-04T05:12:26.572Z,17.37
2019-03-04T05:14:56.906Z,13.50
2019-03-04T05:17:27.593Z,14.67
2019-03-04T05:19:58.063Z,11.80
2019-03-04T05:22:28.328Z,22.03
2019-03-04T05:24:58.795Z,14.30
2019-03-04T05:27:28.961Z,13.83
2019-03-04T05:29:59.229Z,14.67
2019-03-04T05:32:29.817Z,19.00
2019-03-04T05:35:00.043Z,17.57
2019-03-04T05:37:30.809Z,14.97
2019-03-04T05:40:01.096Z,13.87
2019-03-04T05:42:32.187Z,13.87
2019-03-04T05:45:02.801Z,16.80
2019-03-04T05:47:33.803Z,11.90
2019-03-04T05:50:04.027Z,13.53
2019-03-04T05:52:34.300Z,14.70
2019-03-04T05:55:05.275Z,18.97
2019-03-04T05:57:35.531Z,16.63
2019-03-04T06:00:09.259Z,20.10
2019-03-04T06:02:39.779Z,14.63
2019-03-04T06:05:10.464Z,15.97
2019-03-04T06:07:50.151Z,12.50
2019-03-04T06:10:20.407Z,21.77
2019-03-04T06:12:50.763Z,14.20
2019-03-04T06:15:22.006Z,15.23
2019-03-04T06:17:52.651Z,14.47
2019-03-04T06:20:23.161Z,15.70
2019-03-04T06:22:53.520Z,15.50
2019-03-04T06:25:26.547Z,15.23
2019-03-04T06:27:56.825Z,13.37
2019-03-04T06:30:27.554Z,16.27
2019-03-04T06:32:57.956Z,18.33
2019-03-04T06:35:28.259Z,16.10
2019-03-04T06:37:58.555Z,17.07
2019-03-04T06:40:29.434Z,19.57
2019-03-04T06:42:59.718Z,17.90
2019-03-04T06:45:30.804Z,16.73
2019-03-04T06:48:01.138Z,17.63
2019-03-04T06:51:06.888Z,12.77
2019-03-04T06:54:03.174Z,18.43
2019-03-04T06:56:37.974Z,14.43
2019-03-04T06:59:16.849Z,14.90
2019-03-04T07:01:51.250Z,14.67
2019-03-04T07:04:42.092Z,14.50
2019-03-04T07:07:12.714Z,13.60
2019-03-04T07:09:45.248Z,15.63
2019-03-04T07:12:15.969Z,15.97
2019-03-04T07:14:46.548Z,14.73
2019-03-04T07:17:17.123Z,14.17
2019-03-04T07:20:01.308Z,17.20
2019-03-04T07:22:31.916Z,16.50
2019-03-04T07:25:02.235Z,15.80
2019-03-04T07:27:32.545Z,13.70
2019-03-04T07:30:03.761Z,21.60
2019-03-04T07:32:34.039Z,18.73
2019-03-04T07:35:04.799Z,11.00
2019-03-04T07:37:35.405Z,13.47
2019-03-04T07:40:07.487Z,16.93
2019-03-04T07:42:38.118Z,12.27
2019-03-04T07:45:09.828Z,13.37
2019-03-04T07:47:40.199Z,16.27
2019-03-04T07:50:11.407Z,16.37
2019-03-04T07:52:41.618Z,15.23
2019-03-04T07:55:12.093Z,14.40
2019-03-04T07:57:42.608Z,10.77
2019-03-04T08:00:14.030Z,13.83
2019-03-04T08:02:44.813Z,15.67
2019-03-04T08:05:15.565Z,15.00
2019-03-04T08:07:48.926Z,11.40
2019-03-04T08:11:03.126Z,13.77
2019-03-04T08:13:56.170Z,10.83
2019-03-04T08:16:26.505Z,14.73
2019-03-04T08:18:57.219Z,13.07
2019-03-04T08:21:28.687Z,9.93
2019-03-04T08:23:59.007Z,14.17
2019-03-04T08:26:29.390Z,13.03
2019-03-04T08:28:59.656Z,13.00
2019-03-04T08:31:30.137Z,12.30
2019-03-04T08:34:02.185Z,13.67
2019-03-04T08:36:32.490Z,9.80
2019-03-04T08:39:03.335Z,12.97
2019-03-04T08:41:35.186Z,15.87
2019-03-04T08:44:05.521Z,16.67
2019-03-04T08:46:35.981Z,15.37
2019-03-04T08:49:06.326Z,16.60
2019-03-04T08:51:36.655Z,16.90
2019-03-04T08:54:07.119Z,13.00
2019-03-04T08:56:37.646Z,14.03
2019-03-04T08:59:07.901Z,12.47
2019-03-04T09:01:38.531Z,19.57
2019-03-04T09:04:09.039Z,13.57
2019-03-04T09:06:39.879Z,13.10
2019-03-04T09:09:10.879Z,14.27
2019-03-04T09:11:41.778Z,14.80
2019-03-04T09:14:12.227Z,12.33
2019-03-04T09:16:44.729Z,10.10
2019-03-04T09:19:15.611Z,16.10
2019-03-04T09:21:45.987Z,11.43
2019-03-04T09:24:17.668Z,18.40
2019-03-04T09:26:48.520Z,16.53
2019-03-04T09:29:19.730Z,13.67
2019-03-04T09:31:49.987Z,14.10
2019-03-04T09:34:20.298Z,12.60
2019-03-04T09:36:51.099Z,11.90
2019-03-04T09:39:21.272Z,13.30
2019-03-04T09:41:53.404Z,14.43
2019-03-04T09:44:23.684Z,15.23
2019-03-04T09:46:54.352Z,10.90
2019-03-04T09:49:24.538Z,12.50
2019-03-04T09:51:55.069Z,12.03
2019-03-04T09:54:25.771Z,9.47
2019-03-04T09:56:56.105Z,10.47
2019-03-04T09:59:26.466Z,11.63
2019-03-04T10:02:03.790Z,15.20
2019-03-04T10:05:13.587Z,12.97
2019-03-04T10:08:32.412Z,11.43
2019-03-04T10:11:32.694Z,13.00
2019-03-04T10:15:08.785Z,9.90
2019-03-04T10:18:45.527Z,11.27
2019-03-04T10:21:52.396Z,11.63
2019-03-04T10:24:33.890Z,11.47
2019-03-04T10:27:33.142Z,11.00
2019-03-04T10:30:48.892Z,9.63
2019-03-04T10:34:24.594Z,11.87
2019-03-04T10:37:23.839Z,11.50
2019-03-04T10:40:29.680Z,10.47
2019-03-04T10:43:36.067Z,10.90
2019-03-04T10:46:26.848Z,9.83
2019-03-04T10:48:57.225Z,11.03
2019-03-04T10:51:28.803Z,11.60
2019-03-04T10:53:59.394Z,12.13
2019-03-04T10:56:29.606Z,11.97
2019-03-04T10:58:59.877Z,12.97
2019-03-04T11:01:30.811Z,9.27
2019-03-04T11:04:01.531Z,8.87
2019-03-04T11:06:32.058Z,9.07
2019-03-04T11:09:02.418Z,10.17
2019-03-04T11:11:34.530Z,11.47
2019-03-04T11:14:07.697Z,14.47
2019-03-04T11:16:38.420Z,11.40
2019-03-04T11:19:12.233Z,12.67
2019-03-04T11:21:43.491Z,11.53
2019-03-04T11:24:14.918Z,11.67
2019-03-04T11:26:45.244Z,12.40
2019-03-04T11:29:15.493Z,9.30
2019-03-04T11:31:45.908Z,9.73
2019-03-04T11:34:16.262Z,13.47
2019-03-04T11:36:46.729Z,9.87
2019-03-04T11:39:42.898Z,10.40
2019-03-04T11:42:13.716Z,10.33
2019-03-04T11:44:44.989Z,11.37
2019-03-04T11:47:15.800Z,10.30
2019-03-04T11:49:46.111Z,9.17
2019-03-04T11:52:16.386Z,10.67
2019-03-04T11:54:46.846Z,8.23
2019-03-04T11:57:17.073Z,11.83
2019-03-04T11:59:47.511Z,9.00
2019-03-04T12:02:20.526Z,11.90
2019-03-04T12:04:50.778Z,7.57
2019-03-04T12:07:21.202Z,6.93
2019-03-04T12:09:51.507Z,12.57
2019-03-04T12:12:21.872Z,9.83
2019-03-04T12:14:52.390Z,8.53
2019-03-04T12:17:22.727Z,11.77
2019-03-04T12:19:53.159Z,9.53
2019-03-04T12:22:23.590Z,9.50
2019-03-04T12:24:53.975Z,7.80
2019-03-04T12:27:24.431Z,6.70
2019-03-04T12:29:54.715Z,9.53
2019-03-04T12:32:31.398Z,7.87
2019-03-04T12:35:02.077Z,7.67
2019-03-04T12:37:33.148Z,12.67
2019-03-04T12:40:03.379Z,7.27
2019-03-04T12:51:23.478Z,9.30
2019-03-04T12:53:52.265Z,5.97
2019-03-04T12:56:22.510Z,10.70
2019-03-04T12:58:52.952Z,7.17
2019-03-04T13:01:23.163Z,7.77
2019-03-04T13:03:53.671Z,5.73
2019-03-04T13:06:23.917Z,10.13
2019-03-04T13:08:54.357Z,7.57
2019-03-04T13:11:24.611Z,9.37
2019-03-04T13:13:55.155Z,9.33
2019-03-04T13:16:25.419Z,9.33
2019-03-04T13:18:55.791Z,6.73
2019-03-04T13:21:26.099Z,7.43
2019-03-04T13:23:56.475Z,13.17
2019-03-04T13:26:26.737Z,10.17
2019-03-04T13:28:57.094Z,7.07
2019-03-04T13:31:27.326Z,10.83
2019-03-04T13:33:57.620Z,6.43
2019-03-04T13:36:27.933Z,11.37
2019-03-04T13:38:58.198Z,7.50
2019-03-04T13:41:28.423Z,10.13
2019-03-04T13:43:58.720Z,8.13
2019-03-04T13:46:29.630Z,11.40
2019-03-04T13:48:59.941Z,11.20
2019-03-04T13:51:30.863Z,13.07
2019-03-04T13:54:01.145Z,6.97
2019-03-04T13:56:31.715Z,8.33
2019-03-04T13:59:02.259Z,10.77
2019-03-04T14:01:32.570Z,6.50
2019-03-04T14:04:03.133Z,7.57
2019-03-04T14:06:33.371Z,6.80
2019-03-04T14:09:04.859Z,7.27
2019-03-04T14:11:37.028Z,9.10
2019-03-04T14:14:07.313Z,8.03
2019-03-04T14:16:37.631Z,9.20
2019-03-04T14:19:07.927Z,7.90
2019-03-04T14:21:38.277Z,9.20
2019-03-04T14:24:08.536Z,8.73
2019-03-04T14:26:38.983Z,8.60
2019-03-04T14:29:09.965Z,7.53
2019-03-04T14:31:40.642Z,8.37
2019-03-04T14:34:11.051Z,10.87
2019-03-04T14:36:41.535Z,9.73
2019-03-04T14:39:15.965Z,11.00
2019-03-04T14:41:46.996Z,9.50
2019-03-04T14:44:17.298Z,9.20
2019-03-04T14:46:47.689Z,8.23
2019-03-04T14:49:18.999Z,7.40
2019-03-04T14:51:49.372Z,13.03
2019-03-04T14:54:19.683Z,6.07
2019-03-04T14:56:51.011Z,9.37
2019-03-04T14:59:21.285Z,8.57
2019-03-04T15:01:51.604Z,10.53
2019-03-04T15:04:21.851Z,8.23
2019-03-04T15:06:52.428Z,5.30
2019-03-04T15:09:22.962Z,9.17
2019-03-04T15:11:53.428Z,7.10
2019-03-04T15:14:23.759Z,9.27
2019-03-04T15:17:02.998Z,9.17
2019-03-04T15:19:26.510Z,10.13
2019-03-04T15:21:57.044Z,10.17
2019-03-04T15:24:27.338Z,10.00
2019-03-04T15:26:57.822Z,9.20
2019-03-04T15:29:28.218Z,9.07
2019-03-04T15:31:58.452Z,8.57
2019-03-04T15:34:28.730Z,6.33
2019-03-04T15:36:59.218Z,7.40
2019-03-04T15:39:29.491Z,9.60
2019-03-04T15:41:59.807Z,8.13
2019-03-04T15:44:30.298Z,10.43
2019-03-04T15:47:00.670Z,7.23
2019-03-04T15:49:30.946Z,9.03
2019-03-04T15:52:01.244Z,10.63
2019-03-04T15:54:31.600Z,10.17
2019-03-04T15:57:06.034Z,10.20
2019-03-04T15:59:36.428Z,15.37
2019-03-04T16:02:09.248Z,9.77
2019-03-04T16:04:39.592Z,12.73
2019-03-04T16:07:12.287Z,10.13
2019-03-04T16:09:44.412Z,7.50
2019-03-04T16:12:18.726Z,8.60
2019-03-04T16:14:49.098Z,10.27
2019-03-04T16:17:22.108Z,10.47
2019-03-04T16:19:53.577Z,13.33
2019-03-04T16:22:23.867Z,9.37
2019-03-04T16:24:54.538Z,10.90
2019-03-04T16:27:25.268Z,9.23
2019-03-04T16:29:55.559Z,10.13
2019-03-04T16:32:25.856Z,10.67
2019-03-04T16:34:56.146Z,11.70
2019-03-04T16:37:26.429Z,14.03
2019-03-04T16:39:56.841Z,14.40
2019-03-04T16:42:27.214Z,14.50
2019-03-04T16:44:57.403Z,14.33
2019-03-04T16:47:27.929Z,16.87
2019-03-04T16:49:58.183Z,18.67
2019-03-04T16:52:30.415Z,12.03
2019-03-04T16:55:00.792Z,16.20
2019-03-04T16:57:31.422Z,15.00
2019-03-04T17:00:02.750Z,11.50
2019-03-04T17:02:35.062Z,13.07
2019-03-04T17:05:06.686Z,13.63
2019-03-04T17:07:37.340Z,18.43
2019-03-04T17:10:10.418Z,12.20
2019-03-04T17:12:42.115Z,16.47
2019-03-04T17:15:14.860Z,17.93
2019-03-04T17:17:45.693Z,16.10
2019-03-04T17:20:17.364Z,16.70
2019-03-04T17:22:48.356Z,16.43
2019-03-04T17:25:19.186Z,17.70
2019-03-04T17:27:50.238Z,19.17
2019-03-04T17:30:20.670Z,14.43
2019-03-04T17:32:51.054Z,20.43
2019-03-04T17:35:22.095Z,18.40
2019-03-04T17:37:52.569Z,20.93
2019-03-04T17:40:23.183Z,18.73
2019-03-04T17:42:53.499Z,18.73
2019-03-04T17:45:24.704Z,22.03
2019-03-04T17:47:55.421Z,22.53
2019-03-04T17:50:32.620Z,19.27
2019-03-04T17:53:03.832Z,17.53
2019-03-04T17:55:34.691Z,18.33
2019-03-04T17:58:05.294Z,15.87
2019-03-04T18:00:37.277Z,17.50
2019-03-04T18:03:08.070Z,12.50
2019-03-04T18:05:38.735Z,15.80
2019-03-04T18:08:09.066Z,12.17
2019-03-04T18:10:43.099Z,16.30
2019-03-04T18:13:13.961Z,14.07
2019-03-04T18:15:44.840Z,14.87
2019-03-04T18:18:15.353Z,18.03
2019-03-04T18:20:45.727Z,15.77
2019-03-04T18:23:16.330Z,16.77
2019-03-04T18:25:50.448Z,17.03
2019-03-04T18:28:34.113Z,16.90
2019-03-04T18:31:41.977Z,18.73
2019-03-04T18:34:47.141Z,16.63
2019-03-04T18:38:06.209Z,15.80
2019-03-04T18:41:14.472Z,19.57
2019-03-04T18:44:44.303Z,11.70
2019-03-04T18:47:48.214Z,11.90
2019-03-04T18:50:18.955Z,79.13
2019-03-04T18:52:49.341Z,20.33
2019-03-04T18:55:20.987Z,15.37
2019-03-04T18:57:51.566Z,11.23
2019-03-04T19:00:25.018Z,14.20
2019-03-04T19:02:55.834Z,8.50
2019-03-04T19:05:26.481Z,10.60
2019-03-04T19:07:57.161Z,9.33
2019-03-04T19:10:27.560Z,11.50
2019-03-04T19:12:58.111Z,8.33
2019-03-04T19:15:28.443Z,10.33
2019-03-04T19:18:00.314Z,8.60
2019-03-04T19:20:30.729Z,8.07
2019-03-04T19:23:01.120Z,8.57
2019-03-04T19:25:31.903Z,7.80
2019-03-04T19:28:02.491Z,6.67
2019-03-04T19:30:33.046Z,9.47
2019-03-04T19:33:03.448Z,4.93
2019-03-04T19:35:34.212Z,7.37
2019-03-04T19:38:04.920Z,11.20
2019-03-04T19:40:35.352Z,8.60
2019-03-04T19:43:05.788Z,8.50
2019-03-04T19:45:37.786Z,9.40
2019-03-04T19:48:22.407Z,5.10
2019-03-04T19:50:53.023Z,9.53
2019-03-04T19:53:23.658Z,8.13
2019-03-04T19:55:55.340Z,7.63
2019-03-04T19:58:26.032Z,10.30
2019-03-04T20:00:56.837Z,4.73
2019-03-04T20:03:27.692Z,5.03
2019-03-04T20:06:08.002Z,4.73
2019-03-04T20:08:38.938Z,6.60
2019-03-04T20:11:09.655Z,5.53
2019-03-04T20:13:40.134Z,4.53
2019-03-04T20:16:12.295Z,6.80
2019-03-04T20:18:43.754Z,9.83
2019-03-04T20:21:14.455Z,5.47
2019-03-04T20:23:44.833Z,5.57
2019-03-04T20:26:15.517Z,9.30
2019-03-04T20:28:45.959Z,5.73
2019-03-04T20:31:16.315Z,6.60
2019-03-04T20:33:47.068Z,8.70
2019-03-04T20:36:17.628Z,4.70
2019-03-04T20:38:49.358Z,4.47
2019-03-04T20:41:20.447Z,4.90
2019-03-04T20:43:51.447Z,4.97
2019-03-04T20:46:21.896Z,8.30
2019-03-04T20:48:53.181Z,4.63
2019-03-04T20:51:23.546Z,10.07
2019-03-04T20:53:54.145Z,4.87
2019-03-04T20:56:24.578Z,10.47
2019-03-04T20:58:54.972Z,7.37
2019-03-04T21:01:25.921Z,6.23
2019-03-04T21:03:56.311Z,6.43
2019-03-04T21:06:26.698Z,7.00
2019-03-04T21:08:57.368Z,5.00
2019-03-04T21:11:28.222Z,7.57
2019-03-04T21:13:58.735Z,7.33
2019-03-04T21:16:29.291Z,6.50
2019-03-04T21:18:59.855Z,6.10
2019-03-04T21:21:30.972Z,8.97
2019-03-04T21:24:01.274Z,9.97
2019-03-04T21:26:36.249Z,8.33
2019-03-04T21:29:56.999Z,5.27
2019-03-04T21:33:07.188Z,5.43
2019-03-04T21:36:21.151Z,5.50
2019-03-04T21:38:54.169Z,9.07
2019-03-04T21:41:50.243Z,5.93
2019-03-04T21:45:07.739Z,5.70
2019-03-04T21:47:44.193Z,4.67
2019-03-04T21:50:17.456Z,8.00
2019-03-04T21:52:55.941Z,4.70
2019-03-04T21:55:43.807Z,10.60
2019-03-04T21:58:14.124Z,5.93
2019-03-04T22:00:46.300Z,6.23
2019-03-04T22:03:22.996Z,5.07
2019-03-04T22:05:54.117Z,6.03
2019-03-04T22:08:24.654Z,8.47
2019-03-04T22:10:55.069Z,8.37
2019-03-04T22:13:25.985Z,6.60
2019-03-04T22:15:56.766Z,5.50
2019-03-04T22:18:27.354Z,8.33
2019-03-04T22:20:58.389Z,7.67
2019-03-04T22:23:30.781Z,7.00
2019-03-04T22:26:02.479Z,7.83
2019-03-04T22:28:32.918Z,9.87
2019-03-04T22:31:03.468Z,6.47
2019-03-04T22:33:33.741Z,8.20
2019-03-04T22:36:04.149Z,9.60
2019-03-04T22:38:34.512Z,6.80
2019-03-04T22:41:04.925Z,8.97
2019-03-04T22:43:35.471Z,10.40
2019-03-04T22:46:06.274Z,7.93
2019-03-04T22:48:36.770Z,9.27
2019-03-04T22:51:07.146Z,12.57
2019-03-04T22:53:37.489Z,8.33
2019-03-04T22:56:07.784Z,7.03
2019-03-04T22:58:38.070Z,6.40
2019-03-04T23:01:36.225Z,8.67
2019-03-04T23:04:28.247Z,6.87
2019-03-04T23:07:22.379Z,11.57
2019-03-04T23:10:22.208Z,7.27
2019-03-04T23:13:21.837Z,10.53
2019-03-04T23:15:53.251Z,6.47
2019-03-04T23:18:23.524Z,6.70
2019-03-04T23:20:54.320Z,9.67
2019-03-04T23:23:24.578Z,8.07
2019-03-04T23:25:56.313Z,12.97
2019-03-04T23:28:27.002Z,11.93
2019-03-04T23:30:59.797Z,10.93
2019-03-04T23:33:29.236Z,9.90
2019-03-04T23:35:59.603Z,10.40
2019-03-04T23:38:29.899Z,7.80
2019-03-04T23:41:00.223Z,9.00
2019-03-04T23:43:30.558Z,8.20
2019-03-04T23:46:00.845Z,8.83
2019-03-04T23:48:31.198Z,12.10
2019-03-04T23:51:01.488Z,9.93
2019-03-04T23:53:31.795Z,5.47
2019-03-04T23:56:02.116Z,7.77
2019-03-04T23:58:32.442Z,9.20
